Time;durP1;ratioP1;P1;durP2;ratioP2;P2;SDS_P1;SDS_P2;PMS_P1;PMS_P2;Temp;Humidity;BMP_temperature;BMP_pressure;BME280_temperature;BME280_humidity;BME280_pressure;Samples;Min_cycle;Max_cycle;Signal;HPM_P1;HPM_P2
2022/02/02 00:02:09;;;;;;;13.95;5.30;;;;;;;7.73;100.00;98517.41;5084011;28;20028;-68
2022/02/02 00:04:26;;;;;;;19.10;6.30;;;;;;;7.68;100.00;98529.66;5083718;28;20213;-68
2022/02/02 00:09:24;;;;;;;11.25;5.75;;;;;;;7.68;100.00;98534.03;5080189;28;20032;-68
2022/02/02 00:12:14;;;;;;;17.98;5.55;;;;;;;7.65;100.00;98534.94;5083093;28;20016;-68
2022/02/02 00:14:53;;;;;;;15.15;5.97;;;;;;;7.64;100.00;98548.91;5083303;28;20043;-68
2022/02/02 00:20:25;;;;;;;13.90;5.90;;;;;;;7.63;100.00;98555.00;5084092;28;20021;-68
2022/02/02 00:22:54;;;;;;;16.50;5.93;;;;;;;7.66;100.00;98557.59;5083777;28;20084;-68
2022/02/02 00:25:29;;;;;;;19.50;5.63;;;;;;;7.64;100.00;98569.00;5075189;28;20075;-68
2022/02/02 00:27:58;;;;;;;19.80;5.65;;;;;;;7.63;100.00;98551.53;5075669;28;20024;-68
2022/02/02 00:30:27;;;;;;;15.98;6.13;;;;;;;7.65;100.00;98571.59;5083269;28;20335;-68
2022/02/02 00:35:22;;;;;;;19.10;5.35;;;;;;;7.74;100.00;98554.91;5070399;28;20020;-68
2022/02/02 00:37:48;;;;;;;24.98;6.43;;;;;;;7.73;100.00;98535.72;5082846;28;20024;-68
2022/02/02 00:40:13;;;;;;;15.88;6.40;;;;;;;7.64;100.00;98548.91;5081631;28;20339;-68
2022/02/02 00:42:39;;;;;;;14.85;6.20;;;;;;;7.61;100.00;98550.69;5074641;28;20021;-68
2022/02/02 00:45:05;;;;;;;13.07;5.40;;;;;;;7.66;100.00;98559.38;5068491;28;20088;-68
2022/02/02 00:47:36;;;;;;;13.18;5.47;;;;;;;7.64;100.00;98532.31;5082757;28;20032;-68
2022/02/02 00:50:03;;;;;;;23.58;6.22;;;;;;;7.62;100.00;98561.16;5083049;28;20091;-68
2022/02/02 00:52:28;;;;;;;15.30;6.18;;;;;;;7.56;100.00;98540.25;5082946;28;20016;-68
2022/02/02 00:54:54;;;;;;;16.80;6.50;;;;;;;7.63;100.00;98568.09;5082914;28;20079;-68
2022/02/02 00:57:19;;;;;;;11.30;5.25;;;;;;;7.54;100.00;98573.44;5069998;28;20213;-68
2022/02/02 00:59:44;;;;;;;16.75;5.80;;;;;;;7.47;100.00;98519.38;5079173;28;20012;-68
2022/02/02 01:02:12;;;;;;;17.65;5.60;;;;;;;7.48;100.00;98509.78;5064649;28;20032;-68
2022/02/02 01:04:38;;;;;;;16.00;5.80;;;;;;;7.44;100.00;98516.78;5078209;28;20024;-68
2022/02/02 01:10:08;;;;;;;18.88;5.00;;;;;;;7.50;100.00;98540.28;5067074;28;20036;-68
2022/02/02 01:12:44;;;;;;;15.25;5.13;;;;;;;7.50;100.00;98532.44;5066739;28;20236;-68
2022/02/02 01:28:24;;;;;;;14.02;4.30;;;;;;;7.67;100.00;98572.47;5066759;28;20027;-68
2022/02/02 01:30:50;;;;;;;19.40;5.50;;;;;;;7.66;100.00;98555.00;5066698;28;20024;-68
2022/02/02 01:33:16;;;;;;;11.00;4.93;;;;;;;7.65;100.00;98555.88;5066634;28;20076;-68
2022/02/02 01:35:43;;;;;;;14.25;3.80;;;;;;;7.64;100.00;98588.22;5066569;28;20045;-68
2022/02/02 01:38:08;;;;;;;19.85;5.07;;;;;;;7.63;100.00;98562.88;5066536;28;20032;-68
2022/02/02 01:40:39;;;;;;;12.85;4.07;;;;;;;7.65;100.00;98587.31;5066353;28;20020;-68
2022/02/02 01:43:16;;;;;;;15.32;5.40;;;;;;;7.60;100.00;98573.41;5066413;28;20025;-68
2022/02/02 01:45:47;;;;;;;9.70;4.13;;;;;;;7.58;100.00;98575.16;5066676;28;20043;-68
2022/02/02 01:51:32;;;;;;;11.05;4.82;;;;;;;7.62;100.00;98582.09;5066913;28;20017;-68
2022/02/02 01:56:06;;;;;;;12.82;4.72;;;;;;;7.65;100.00;98603.03;5086253;28;20212;-68
2022/02/02 02:01:10;;;;;;;16.20;4.50;;;;;;;7.60;100.00;98583.88;5086585;28;20029;-68
2022/02/02 02:03:36;;;;;;;11.93;4.93;;;;;;;7.60;100.00;98583.88;5084143;28;20283;-68
2022/02/02 02:06:03;;;;;;;16.60;4.70;;;;;;;7.60;100.00;98565.56;5085205;28;20020;-68
2022/02/02 02:08:28;;;;;;;15.68;5.05;;;;;;;7.64;100.00;98569.00;5085571;28;20017;-68
2022/02/02 02:10:54;;;;;;;9.13;4.18;;;;;;;7.73;100.00;98563.69;5085687;28;20304;-68
2022/02/02 02:13:55;;;;;;;11.85;4.53;;;;;;;7.78;100.00;98583.69;5081784;28;20040;-68
2022/02/02 02:16:12;;;;;;;13.68;4.70;;;;;;;7.79;100.00;98567.09;5075169;28;20028;-68
2022/02/02 02:18:37;;;;;;;21.35;4.90;;;;;;;7.76;100.00;98590.72;5080646;28;20133;-68
2022/02/02 02:21:09;;;;;;;11.80;4.18;;;;;;;7.72;100.00;98568.03;5066691;28;20033;-68
2022/02/02 02:23:35;;;;;;;14.85;4.55;;;;;;;7.75;100.00;98593.34;5074455;28;20398;-68
2022/02/02 02:26:01;;;;;;;12.27;4.30;;;;;;;7.73;100.00;98606.47;5085095;28;20020;-68
2022/02/02 02:28:49;;;;;;;19.45;4.55;;;;;;;7.73;100.00;98580.28;5084798;28;20020;-68
2022/02/02 02:31:46;;;;;;;14.25;3.88;;;;;;;7.66;100.00;98596.91;5085443;28;20091;-68
2022/02/02 02:39:38;;;;;;;13.93;3.28;;;;;;;7.68;100.00;98618.72;5074423;28;20048;-68
2022/02/02 02:55:58;;;;;;;17.92;3.85;;;;;;;7.59;100.00;98579.50;5065061;28;20023;-68
2022/02/02 03:31:19;;;;;;;12.25;2.92;;;;;;;7.42;100.00;98602.34;5084464;28;20071;-68
2022/02/02 04:00:33;;;;;;;6.13;3.05;;;;;;;7.44;100.00;98569.16;5084270;28;20189;-68
2022/02/02 04:05:46;;;;;;;12.75;3.15;;;;;;;7.39;100.00;98578.81;5083464;28;20086;-68
2022/02/02 04:08:32;;;;;;;6.30;2.63;;;;;;;7.30;100.00;98578.88;5074081;28;20074;-68
2022/02/02 04:11:00;;;;;;;19.02;3.35;;;;;;;7.26;100.00;98590.25;5067573;28;20016;-68
2022/02/02 04:38:20;;;;;;;10.00;3.03;;;;;;;7.25;100.00;98638.25;5086153;28;20023;-68
2022/02/02 04:54:20;;;;;;;8.65;3.40;;;;;;;7.26;100.00;98649.56;5081984;28;20020;-68
2022/02/02 04:59:59;;;;;;;21.60;4.00;;;;;;;7.13;100.00;98680.19;5068441;28;20024;-68
2022/02/02 05:14:06;;;;;;;12.75;3.10;;;;;;;7.02;100.00;98666.28;5066205;28;20045;-68
2022/02/02 05:49:17;;;;;;;13.80;4.30;;;;;;;7.18;100.00;98699.34;5064230;28;20101;-68
2022/02/02 05:53:44;;;;;;;15.02;3.80;;;;;;;7.20;100.00;98681.91;5064617;28;20025;-68
2022/02/02 05:56:10;;;;;;;11.90;2.95;;;;;;;7.19;100.00;98674.94;5066003;28;20036;-68
2022/02/02 05:58:38;;;;;;;12.60;2.88;;;;;;;7.22;100.00;98710.69;5066283;28;20024;-68
2022/02/02 06:01:05;;;;;;;22.60;4.05;;;;;;;7.23;100.00;98722.88;5066317;28;20021;-68
2022/02/02 06:03:50;;;;;;;13.18;3.00;;;;;;;7.24;100.00;98667.06;5066139;28;20024;-68
2022/02/02 06:06:17;;;;;;;10.18;2.78;;;;;;;7.20;100.00;98666.19;5066372;28;20052;-68
2022/02/02 06:08:44;;;;;;;13.63;3.35;;;;;;;7.17;100.00;98671.44;5066009;28;20055;-68
2022/02/02 06:11:21;;;;;;;8.57;2.42;;;;;;;7.17;100.00;98665.31;5065998;28;20040;-68
2022/02/02 06:13:52;;;;;;;13.45;2.40;;;;;;;7.18;99.97;98709.81;5065703;28;20213;-68
2022/02/02 06:16:19;;;;;;;11.93;3.15;;;;;;;7.23;99.60;98718.53;5066193;28;20025;-68
2022/02/02 06:18:53;;;;;;;12.75;3.15;;;;;;;7.20;99.07;98715.94;5066183;28;20048;-68
2022/02/02 06:21:24;;;;;;;14.65;3.17;;;;;;;7.19;99.11;98724.66;5065804;28;20025;-68
2022/02/02 06:24:06;;;;;;;11.73;2.63;;;;;;;7.21;98.41;98729.91;5065897;28;20028;-68
2022/02/02 06:26:37;;;;;;;11.35;2.97;;;;;;;7.18;98.26;98751.69;5065787;28;20020;-68
2022/02/02 06:29:04;;;;;;;9.40;2.22;;;;;;;7.16;98.07;98753.47;5066054;28;20143;-68
2022/02/02 06:31:36;;;;;;;13.90;2.28;;;;;;;7.12;97.74;98753.50;5065626;28;20391;-68
2022/02/02 06:34:04;;;;;;;26.95;4.13;;;;;;;7.09;98.31;98751.72;5065690;28;20025;-68
2022/02/02 06:36:31;;;;;;;14.25;3.20;;;;;;;7.14;97.80;98756.94;5065514;28;20028;-68
2022/02/02 06:38:57;;;;;;;7.10;2.17;;;;;;;7.13;97.24;98763.94;5065435;28;20024;-68
2022/02/02 06:41:25;;;;;;;21.67;3.33;;;;;;;7.14;97.11;98768.31;5065336;28;20036;-68
2022/02/02 06:43:53;;;;;;;14.25;2.67;;;;;;;7.17;96.69;98770.03;5065293;28;20031;-68
2022/02/02 06:46:21;;;;;;;18.00;3.22;;;;;;;7.12;97.24;98775.28;5065299;28;20048;-68
2022/02/02 06:48:46;;;;;;;11.70;2.63;;;;;;;7.19;96.73;98784.88;5065293;28;20023;-68
2022/02/02 06:51:21;;;;;;;11.77;2.67;;;;;;;7.16;96.56;98795.34;5065319;28;20036;-68
2022/02/02 06:53:56;;;;;;;15.43;2.72;;;;;;;7.18;96.29;98793.56;5065178;28;20062;-68
2022/02/02 06:59:18;;;;;;;11.23;2.80;;;;;;;7.17;96.57;98807.56;5064907;28;20025;-68
2022/02/02 07:10:25;;;;;;;16.08;3.20;;;;;;;7.21;97.19;98817.13;5064857;28;20036;-68
2022/02/02 07:28:14;;;;;;;13.25;2.63;;;;;;;7.29;97.99;98820.59;5064540;28;20048;-68
2022/02/02 07:33:28;;;;;;;18.90;3.30;;;;;;;7.38;97.37;98822.31;5064816;28;20029;-68
2022/02/02 07:38:26;;;;;;;5.70;2.67;;;;;;;7.38;97.81;98822.31;5064261;28;20016;-68
2022/02/02 07:40:53;;;;;;;16.83;3.10;;;;;;;7.35;97.56;98836.31;5064176;28;20088;-68
2022/02/02 07:43:23;;;;;;;11.80;2.90;;;;;;;7.38;97.93;98838.91;5064247;28;20143;-68
2022/02/02 07:45:57;;;;;;;17.02;3.33;;;;;;;7.36;98.46;98837.16;5064478;28;20308;-68
2022/02/02 07:48:22;;;;;;;9.55;3.35;;;;;;;7.41;97.91;98841.50;5064456;28;20051;-68
2022/02/02 07:50:48;;;;;;;16.90;3.53;;;;;;;7.43;98.61;98852.84;5064420;28;20280;-68
2022/02/02 07:53:21;;;;;;;9.30;2.63;;;;;;;7.46;97.97;98847.59;5064362;28;20025;-68
2022/02/02 07:55:48;;;;;;;13.02;3.33;;;;;;;7.52;98.17;98858.03;5064386;28;20017;-68
2022/02/02 07:58:20;;;;;;;17.67;3.65;;;;;;;7.60;97.61;98856.28;5064351;28;20205;-68
2022/02/02 08:00:46;;;;;;;11.55;3.58;;;;;;;7.71;97.80;98867.56;5063913;28;20028;-68
2022/02/02 08:03:13;;;;;;;17.73;3.47;;;;;;;7.72;97.45;98874.53;5064267;28;20213;-68
2022/02/02 08:05:45;;;;;;;14.43;3.00;;;;;;;7.73;97.83;98857.97;5063963;28;20060;-68
2022/02/02 08:10:47;;;;;;;14.80;4.17;;;;;;;7.82;97.27;98876.25;5064038;28;20021;-68
2022/02/02 08:13:22;;;;;;;15.57;4.05;;;;;;;7.87;96.58;98870.97;5063709;28;20301;-68
2022/02/02 08:15:58;;;;;;;19.83;3.30;;;;;;;7.82;96.84;98873.63;5063860;28;20017;-68
2022/02/02 08:18:24;;;;;;;20.58;3.25;;;;;;;7.86;96.78;98883.22;5063847;28;20025;-68
2022/02/02 08:20:49;;;;;;;8.82;2.72;;;;;;;7.88;96.62;98884.06;5063960;28;20034;-68
2022/02/02 08:23:15;;;;;;;12.23;3.35;;;;;;;7.91;96.13;98894.53;5063767;28;20342;-68
2022/02/02 08:25:42;;;;;;;14.50;3.03;;;;;;;7.98;96.28;98884.91;5063671;28;20029;-68
2022/02/02 08:28:08;;;;;;;11.02;2.72;;;;;;;8.07;95.80;98875.25;5063694;28;20025;-68
2022/02/02 08:30:34;;;;;;;21.00;3.67;;;;;;;8.12;95.96;98891.81;5063662;28;20367;-68
2022/02/02 08:33:01;;;;;;;20.88;3.60;;;;;;;8.18;95.42;98885.66;5063710;28;20025;-68
2022/02/02 08:35:29;;;;;;;14.48;3.60;;;;;;;8.17;95.61;98895.28;5063666;28;20033;-68
2022/02/02 08:38:12;;;;;;;19.05;3.35;;;;;;;8.15;95.35;98894.44;5063642;28;20024;-68
2022/02/02 08:40:42;;;;;;;;;;;;;;;8.12;95.57;98894.44;5064245;28;20031;-68
2022/02/02 08:43:13;;;;;;;11.45;2.63;;;;;;;8.11;96.56;98903.19;5063862;28;19904;-68
2022/02/02 08:45:41;;;;;;;22.43;3.60;;;;;;;8.20;95.07;98897.88;5063659;28;20255;-68
2022/02/02 08:48:10;;;;;;;22.80;3.60;;;;;;;8.16;95.49;98901.41;5063598;28;20139;-68
2022/02/02 08:50:50;;;;;;;18.83;3.50;;;;;;;8.25;95.89;98904.03;5063745;28;20335;-68
2022/02/02 08:53:30;;;;;;;7.20;3.03;;;;;;;8.33;95.54;98896.97;5063769;28;20370;-68
2022/02/02 08:59:00;;;;;;;12.77;2.80;;;;;;;8.46;94.83;98890.78;5062596;28;20041;-68
2022/02/02 09:01:29;;;;;;;16.67;3.35;;;;;;;8.47;93.99;98902.13;5063632;28;20067;-68
2022/02/02 09:06:39;;;;;;;22.88;3.42;;;;;;;8.45;94.18;98901.28;5063359;28;20263;-68
2022/02/02 09:09:14;;;;;;;17.77;3.15;;;;;;;8.39;94.47;98899.53;5063327;28;20025;-68
2022/02/02 09:25:16;;;;;;;10.27;2.80;;;;;;;8.79;94.16;98890.50;5067096;28;20021;-68
2022/02/02 09:35:38;;;;;;;15.95;2.75;;;;;;;8.78;94.50;98925.53;5067006;28;20052;-68
2022/02/02 09:38:04;;;;;;;16.48;3.22;;;;;;;8.80;93.41;98934.22;5066588;28;20036;-68
2022/02/02 09:43:15;;;;;;;9.73;3.17;;;;;;;8.73;93.32;98937.78;5066877;28;20024;-68
2022/02/02 09:45:40;;;;;;;14.88;3.00;;;;;;;8.79;93.15;98935.13;5066582;28;20032;-68
2022/02/02 09:48:15;;;;;;;9.40;2.55;;;;;;;8.86;92.59;98921.97;5066459;28;20103;-68
2022/02/02 09:50:48;;;;;;;14.60;3.35;;;;;;;8.95;92.73;98908.75;5066626;28;20044;-68
2022/02/02 09:53:31;;;;;;;15.18;3.35;;;;;;;8.99;93.32;98918.34;5066414;28;20024;-68
2022/02/02 09:56:35;;;;;;;11.32;3.60;;;;;;;9.01;93.19;98921.84;5066570;28;20040;-68
2022/02/02 09:59:03;;;;;;;15.60;3.60;;;;;;;8.79;93.93;98932.50;5066050;28;20239;-68
2022/02/02 10:06:54;;;;;;;12.10;3.00;;;;;;;8.74;94.25;98965.75;5066414;28;20028;-68
2022/02/02 10:12:08;;;;;;;19.10;3.78;;;;;;;8.99;94.35;98986.59;5066318;28;20017;-68
2022/02/02 10:14:38;;;;;;;14.02;3.78;;;;;;;8.90;94.26;98976.16;5065825;28;20262;-68
2022/02/02 10:17:11;;;;;;;17.05;3.28;;;;;;;8.94;94.27;98975.25;5066137;28;20049;-68
2022/02/02 10:19:37;;;;;;;;;;;;;;;8.89;94.57;98991.03;5066538;28;20025;-68
2022/02/02 10:22:44;;;;;;;12.07;2.97;;;;;;;8.87;94.99;98977.06;5065968;28;19931;-68
2022/02/02 10:25:10;;;;;;;8.52;3.50;;;;;;;8.81;95.19;98984.97;5043896;28;20245;-68
2022/02/02 10:27:36;;;;;;;11.75;3.03;;;;;;;8.77;95.53;98980.66;5044026;28;20032;-68
2022/02/02 10:31:47;;;;;;;14.40;3.63;;;;;;;8.72;96.00;98988.53;5122329;27;20314;-68
2022/02/02 10:34:15;;;;;;;25.13;4.55;;;;;;;8.59;97.15;98996.50;5122017;28;20223;-68
2022/02/02 10:36:42;;;;;;;15.23;3.40;;;;;;;8.59;97.95;98996.50;5121834;28;20023;-68
2022/02/02 10:39:20;;;;;;;11.60;3.58;;;;;;;8.47;98.07;98994.81;5121825;28;20319;-68
2022/02/02 10:41:51;;;;;;;11.52;3.10;;;;;;;8.41;97.96;98992.22;5121895;28;20027;-68
2022/02/02 10:44:40;;;;;;;12.65;2.70;;;;;;;8.49;97.87;98985.16;5122025;28;20020;-68
2022/02/02 10:49:55;;;;;;;8.07;2.85;;;;;;;8.42;99.24;98996.56;5121569;28;20027;-68
2022/02/02 10:58:25;;;;;;;10.73;3.83;;;;;;;8.40;100.00;99000.97;5121509;28;20020;-68
2022/02/02 11:08:46;;;;;;;23.88;3.85;;;;;;;8.33;99.92;98993.13;5121333;28;20019;-68
2022/02/02 11:11:12;;;;;;;10.02;3.30;;;;;;;8.37;99.58;99006.22;5121179;28;20027;-68
2022/02/02 11:13:39;;;;;;;8.07;3.28;;;;;;;8.30;100.00;99001.91;5121446;28;20020;-68
2022/02/02 11:16:07;;;;;;;15.77;4.03;;;;;;;8.30;99.78;99012.38;5121150;28;20020;-68
2022/02/02 11:18:37;;;;;;;8.00;3.38;;;;;;;8.26;99.51;99018.50;5121047;28;20069;-68
2022/02/02 11:21:10;;;;;;;10.90;3.40;;;;;;;8.26;100.00;99010.63;5121335;28;20019;-68
2022/02/02 11:23:52;;;;;;;14.07;5.10;;;;;;;8.32;99.84;99022.84;5121160;28;20369;-68
2022/02/02 11:26:37;;;;;;;16.67;4.03;;;;;;;8.27;100.00;99020.28;5100861;28;20028;-68
2022/02/02 11:29:04;;;;;;;11.15;4.03;;;;;;;8.30;100.00;99015.00;5100452;28;20237;-68
2022/02/02 11:31:29;;;;;;;11.20;4.50;;;;;;;8.30;100.00;99015.00;5100203;28;20083;-68
2022/02/02 11:33:58;;;;;;;12.95;4.82;;;;;;;8.35;100.00;99013.22;5100385;28;20028;-68
2022/02/02 11:36:33;;;;;;;10.02;4.78;;;;;;;8.41;100.00;99013.19;5100596;28;20031;-68
2022/02/02 11:39:01;;;;;;;18.40;4.93;;;;;;;8.43;100.00;99027.19;5100330;28;20047;-68
2022/02/02 11:50:04;;;;;;;8.73;3.72;;;;;;;8.58;100.00;99011.34;5086634;28;20023;-68
2022/02/02 11:52:41;;;;;;;15.68;4.80;;;;;;;8.66;100.00;99013.94;5086584;28;20080;-68
2022/02/02 11:55:26;;;;;;;13.90;4.15;;;;;;;8.65;100.00;98997.34;5086551;28;20028;-68
2022/02/02 11:58:16;;;;;;;8.40;3.30;;;;;;;8.61;100.00;98958.88;5086365;28;20017;-68
2022/02/02 12:01:39;;;;;;;17.80;4.03;;;;;;;8.62;100.00;98962.38;5086392;28;20020;-68
2022/02/02 12:03:46;;;;;;;14.73;2.65;;;;;;;8.62;100.00;98965.88;5075637;28;20036;-68
2022/02/02 12:06:39;;;;;;;6.03;3.15;;;;;;;8.65;100.00;98960.59;5086582;28;20304;-68
2022/02/02 12:09:25;;;;;;;6.43;2.90;;;;;;;8.72;100.00;98980.66;5086192;28;20039;-68
2022/02/02 12:48:08;;;;;;;12.93;3.05;;;;;;;8.68;100.00;99047.16;5085766;28;20020;-69
2022/02/02 12:53:40;;;;;;;17.05;3.50;;;;;;;8.64;99.70;99052.44;5065145;28;20040;-69
2022/02/02 12:59:38;;;;;;;7.78;2.83;;;;;;;8.59;99.33;99065.59;5062495;28;20033;-69
2022/02/02 13:02:11;;;;;;;17.13;3.40;;;;;;;8.59;99.38;99064.72;5084394;28;20327;-69
2022/02/02 13:04:38;;;;;;;9.65;2.53;;;;;;;8.64;99.81;99074.28;5085417;28;20020;-69
2022/02/02 13:07:11;;;;;;;3.35;1.77;;;;;;;8.73;99.47;99063.75;5085106;28;20029;-69
2022/02/02 13:09:37;;;;;;;11.90;2.60;;;;;;;8.73;100.00;99073.38;5084992;28;20032;-69
2022/02/02 13:12:32;;;;;;;7.72;2.67;;;;;;;8.78;99.93;99067.25;5084999;28;20196;-69
2022/02/02 13:17:29;;;;;;;3.95;1.48;;;;;;;8.88;98.90;99068.03;5084921;28;20095;-69
2022/02/02 13:19:59;;;;;;;6.47;1.80;;;;;;;8.82;98.74;99074.22;5084846;28;20017;-69
2022/02/02 13:22:28;;;;;;;5.97;1.85;;;;;;;8.86;98.70;99069.78;5085067;28;20020;-69
2022/02/02 13:24:54;;;;;;;4.25;1.42;;;;;;;8.85;98.45;99061.97;5084958;28;20038;-69
2022/02/02 13:27:22;;;;;;;7.35;1.48;;;;;;;8.86;99.40;99074.19;5084970;28;20016;-69
2022/02/02 13:29:52;;;;;;;4.07;1.85;;;;;;;8.87;99.84;99081.19;5084448;28;20075;-69
2022/02/02 13:32:27;;;;;;;3.00;1.58;;;;;;;8.85;99.00;99082.97;5084605;28;20028;-69
2022/02/02 13:53:53;;;;;;;2.95;1.48;;;;;;;8.90;100.00;99099.53;5084398;28;20100;-69
2022/02/02 14:31:22;;;;;;;1.73;1.38;;;;;;;8.94;100.00;99098.63;5084000;28;20070;-69
2022/02/02 14:33:52;;;;;;;2.92;1.50;;;;;;;8.94;100.00;99107.41;5084240;28;20089;-69
2022/02/02 14:36:21;;;;;;;5.65;1.75;;;;;;;8.98;100.00;99110.88;5083940;28;20016;-69
2022/02/02 14:38:59;;;;;;;2.92;1.50;;;;;;;9.04;100.00;99116.06;5084347;28;20031;-69
2022/02/02 14:46:28;;;;;;;2.28;1.38;;;;;;;9.04;100.00;99119.59;5084431;28;20024;-69
2022/02/02 14:48:59;;;;;;;2.28;1.33;;;;;;;9.05;100.00;99117.84;5084091;28;20088;-69
2022/02/02 14:51:35;;;;;;;2.53;1.50;;;;;;;9.02;100.00;99128.34;5084254;28;20031;-69
2022/02/02 14:56:54;;;;;;;3.70;1.48;;;;;;;9.01;100.00;99131.88;5084371;28;20020;-69
2022/02/02 15:31:45;;;;;;;2.53;1.67;;;;;;;8.87;100.00;99115.31;5087348;28;20032;-69
2022/02/02 15:34:16;;;;;;;4.28;1.60;;;;;;;8.90;100.00;99133.66;5085723;28;20343;-69
2022/02/02 15:39:21;;;;;;;2.67;1.48;;;;;;;8.82;100.00;99147.69;5086004;28;20076;-69
2022/02/02 16:03:33;;;;;;;2.65;1.60;;;;;;;8.64;100.00;99104.94;5052392;28;20040;-69
2022/02/02 16:06:12;;;;;;;2.28;1.38;;;;;;;8.63;100.00;99145.16;5086297;28;20029;-69
2022/02/02 16:08:39;;;;;;;3.85;1.90;;;;;;;8.61;100.00;99105.78;5086152;28;20024;-69
2022/02/02 16:13:49;;;;;;;2.90;1.83;;;;;;;8.53;100.00;99107.59;5086575;28;20048;-69
2022/02/02 16:19:02;;;;;;;8.00;2.45;;;;;;;8.52;100.00;99110.22;5086199;28;20028;-69
2022/02/02 16:37:42;;;;;;;6.53;2.53;;;;;;;8.44;100.00;99131.22;5085088;28;20025;-69
2022/02/02 16:40:10;;;;;;;3.67;2.67;;;;;;;8.42;100.00;99113.75;5085532;28;20023;-69
2022/02/02 16:45:46;;;;;;;5.07;2.45;;;;;;;8.42;100.00;99129.50;5018405;28;20438;-68
2022/02/02 16:48:12;;;;;;;6.07;2.97;;;;;;;8.37;100.00;99146.97;5022456;28;20068;-68
2022/02/02 16:50:41;;;;;;;10.23;3.17;;;;;;;8.30;100.00;99156.63;5021921;28;20045;-68
2022/02/02 16:53:36;;;;;;;8.98;3.00;;;;;;;8.35;100.00;99132.97;5022200;28;20032;-69
2022/02/02 16:56:24;;;;;;;7.15;2.97;;;;;;;8.32;100.00;99139.13;5022057;28;20060;-69
2022/02/02 17:31:33;;;;;;;9.27;4.20;;;;;;;8.11;100.00;99181.09;5085246;28;20103;-68
2022/02/02 17:34:11;;;;;;;12.50;6.57;;;;;;;8.17;100.00;99190.69;5084004;28;20020;-68
2022/02/02 17:36:47;;;;;;;10.57;5.88;;;;;;;8.15;100.00;99182.84;5083599;28;20017;-68
2022/02/02 17:39:15;;;;;;;11.38;5.80;;;;;;;8.13;100.00;99197.69;5083355;28;20048;-69
2022/02/02 18:19:01;;;;;;;9.53;4.67;;;;;;;7.93;100.00;99190.69;5082969;28;20052;-68
2022/02/02 18:21:28;;;;;;;8.93;3.88;;;;;;;7.90;100.00;99186.34;5082885;28;20357;-68
2022/02/02 18:24:02;;;;;;;5.28;3.45;;;;;;;7.92;100.00;99221.31;5082968;28;20055;-68
2022/02/02 18:34:10;;;;;;;6.78;4.00;;;;;;;7.96;100.00;99204.69;5082942;28;20024;-68
2022/02/02 18:47:24;;;;;;;9.55;4.65;;;;;;;8.24;100.00;99235.31;5078378;28;20030;-68
2022/02/02 19:56:56;;;;;;;9.90;4.15;;;;;;;8.49;100.00;99229.13;5085497;28;20025;-68
2022/02/02 20:10:24;;;;;;;9.88;4.97;;;;;;;8.49;100.00;99257.97;5084895;28;20084;-68
2022/02/02 20:12:47;;;;;;;7.03;4.05;;;;;;;8.48;100.00;99240.50;5084459;28;20044;-68
2022/02/02 20:15:14;;;;;;;8.13;4.32;;;;;;;8.49;100.00;99268.47;5084887;28;20092;-68
2022/02/02 20:17:41;;;;;;;6.78;4.13;;;;;;;8.50;100.00;99243.13;5085323;28;20246;-68
2022/02/02 20:20:13;;;;;;;11.63;4.43;;;;;;;8.53;100.00;99237.88;5084801;28;20016;-68
2022/02/02 20:22:39;;;;;;;7.47;4.15;;;;;;;8.49;100.00;99244.88;5085105;28;20017;-68
2022/02/02 20:25:05;;;;;;;7.78;4.40;;;;;;;8.50;100.00;99280.75;5084984;28;20061;-68
2022/02/02 20:27:33;;;;;;;11.82;4.40;;;;;;;8.47;100.00;99251.88;5085101;28;20059;-68
2022/02/02 20:30:00;;;;;;;6.50;4.00;;;;;;;8.48;100.00;99255.41;5084574;28;20052;-68
2022/02/02 20:32:25;;;;;;;9.35;5.00;;;;;;;8.52;100.00;99244.88;5084541;28;20036;-68
2022/02/02 20:34:51;;;;;;;10.35;4.53;;;;;;;8.50;100.00;99249.25;5084915;28;20025;-68
2022/02/02 20:37:18;;;;;;;7.35;4.18;;;;;;;8.49;100.00;99241.41;5084850;28;20020;-68
2022/02/02 20:42:14;;;;;;;6.75;3.88;;;;;;;8.52;100.00;99250.13;5084927;28;20047;-68
2022/02/02 21:15:29;;;;;;;5.72;3.50;;;;;;;8.32;100.00;99280.75;5041464;28;20040;-68
2022/02/02 21:17:59;;;;;;;8.30;3.80;;;;;;;8.34;100.00;99288.63;5042104;28;20084;-68
2022/02/02 21:20:35;;;;;;;7.97;4.10;;;;;;;8.40;100.00;99268.50;5041947;28;20387;-68
2022/02/02 21:23:10;;;;;;;6.78;3.30;;;;;;;8.36;100.00;99292.13;5041865;28;20029;-68
2022/02/02 21:25:44;;;;;;;8.55;3.67;;;;;;;8.35;100.00;99285.09;5041458;28;20033;-68
2022/02/02 21:28:10;;;;;;;6.72;3.63;;;;;;;8.33;100.00;99258.88;5041834;28;20037;-68
2022/02/02 21:30:40;;;;;;;5.97;3.33;;;;;;;8.36;100.00;99272.00;5041434;28;20226;-68
2022/02/02 21:33:07;;;;;;;6.38;3.75;;;;;;;8.36;100.00;99266.75;5037118;28;20055;-68
2022/02/02 21:35:35;;;;;;;8.02;3.90;;;;;;;8.38;100.00;99259.75;5022086;28;20021;-68
2022/02/02 21:38:02;;;;;;;6.95;3.42;;;;;;;8.38;100.00;99265.00;5021662;28;20071;-68
2022/02/02 21:40:29;;;;;;;6.40;3.25;;;;;;;8.43;100.00;99265.91;5021960;28;20096;-68
2022/02/02 21:42:57;;;;;;;7.65;3.50;;;;;;;8.46;100.00;99257.13;5021841;28;20093;-68
2022/02/02 21:45:24;;;;;;;8.55;3.80;;;;;;;8.43;100.00;99268.50;5022364;28;20029;-68
2022/02/02 21:47:50;;;;;;;7.53;3.55;;;;;;;8.38;100.00;99254.53;5063315;28;20025;-68
2022/02/02 21:50:18;;;;;;;10.30;3.72;;;;;;;8.41;100.00;99253.63;5062553;28;20027;-68
2022/02/02 21:52:46;;;;;;;8.77;3.72;;;;;;;8.39;100.00;99287.72;5063098;28;20021;-68
2022/02/02 21:55:12;;;;;;;5.82;3.38;;;;;;;8.41;100.00;99286.00;5063436;28;20092;-68
2022/02/02 21:57:38;;;;;;;7.75;4.05;;;;;;;8.38;100.00;99265.00;5063171;28;20025;-68
2022/02/02 22:00:10;;;;;;;7.57;3.78;;;;;;;8.40;100.00;99242.28;5062845;28;20312;-68
2022/02/02 22:02:36;;;;;;;5.35;3.08;;;;;;;8.40;100.00;99252.78;5063087;28;20074;-68
2022/02/02 22:05:04;;;;;;;8.02;3.95;;;;;;;8.38;100.00;99246.66;5062742;28;20021;-68
2022/02/02 22:07:30;;;;;;;9.27;3.90;;;;;;;8.38;100.00;99269.38;5062628;28;20219;-68
2022/02/02 22:09:57;;;;;;;6.75;3.75;;;;;;;8.36;100.00;99274.63;5063081;28;20035;-68
2022/02/02 22:12:24;;;;;;;8.02;3.80;;;;;;;8.38;100.00;99248.38;5063116;28;20032;-68
2022/02/02 22:14:51;;;;;;;6.15;3.50;;;;;;;8.36;100.00;99253.63;5062887;28;20074;-69
2022/02/02 22:17:18;;;;;;;7.15;3.60;;;;;;;8.37;100.00;99289.50;5062670;28;20032;-69
2022/02/02 22:19:44;;;;;;;8.80;4.32;;;;;;;8.36;100.00;99300.84;5062939;28;20035;-69
2022/02/02 22:22:09;;;;;;;7.38;4.07;;;;;;;8.40;100.00;99273.75;5063004;28;20321;-69
2022/02/02 22:24:37;;;;;;;6.55;4.07;;;;;;;8.42;100.00;99303.47;5062639;28;20032;-69
2022/02/02 22:27:04;;;;;;;7.28;4.82;;;;;;;8.38;100.00;99308.72;5062741;28;20351;-69
2022/02/02 22:29:30;;;;;;;7.10;4.38;;;;;;;8.37;100.00;99276.38;5064555;28;20052;-69
2022/02/02 22:31:56;;;;;;;7.70;4.57;;;;;;;8.39;100.00;99313.97;5082647;28;20020;-69
2022/02/02 22:34:21;;;;;;;8.25;5.13;;;;;;;8.36;100.00;99298.22;5082695;28;20031;-69
2022/02/02 22:36:47;;;;;;;10.75;6.05;;;;;;;8.36;100.00;99292.97;5083014;28;20055;-69
2022/02/02 22:39:13;;;;;;;9.25;5.82;;;;;;;8.38;100.00;99317.47;5082886;28;20048;-69
2022/02/02 22:41:38;;;;;;;9.65;5.35;;;;;;;8.39;100.00;99292.97;5082863;28;20063;-69
2022/02/02 22:44:10;;;;;;;14.77;6.47;;;;;;;8.34;100.00;99284.25;5082205;28;20212;-69
2022/02/02 22:46:37;;;;;;;9.98;6.65;;;;;;;8.31;100.00;99286.88;5082658;28;20052;-69
2022/02/02 22:49:03;;;;;;;12.00;6.43;;;;;;;8.33;100.00;99292.97;5083312;28;20351;-69
2022/02/02 22:51:30;;;;;;;11.55;6.72;;;;;;;8.37;100.00;99288.63;5083193;28;20025;-69
2022/02/02 22:53:56;;;;;;;9.60;6.20;;;;;;;8.34;100.00;99300.00;5083453;28;20091;-69
2022/02/02 22:56:22;;;;;;;15.45;7.65;;;;;;;8.34;100.00;99320.97;5083888;28;20093;-69
2022/02/02 22:58:49;;;;;;;10.95;5.97;;;;;;;8.36;100.00;99329.69;5083294;28;20224;-69
2022/02/02 23:01:16;;;;;;;10.93;5.55;;;;;;;8.31;100.00;99294.75;5083268;28;20227;-69
2022/02/02 23:03:42;;;;;;;12.50;5.47;;;;;;;8.32;100.00;99317.47;5083429;28;20024;-69
2022/02/02 23:06:07;;;;;;;6.55;4.35;;;;;;;8.34;100.00;99320.09;5083589;28;20306;-69
2022/02/02 23:08:32;;;;;;;8.20;4.50;;;;;;;8.29;100.00;99309.59;5083398;28;20026;-69
2022/02/02 23:10:59;;;;;;;9.23;5.00;;;;;;;8.26;100.00;99291.22;5083475;28;20024;-69
2022/02/02 23:13:25;;;;;;;10.82;6.50;;;;;;;8.24;100.00;99313.09;5083389;28;20209;-69
2022/02/02 23:18:19;;;;;;;7.47;4.80;;;;;;;8.20;100.00;99325.28;5083660;28;20025;-69